Sault Ste Marie Airport
CYAM : rendu visible

Aérodrome :











RETROUVEZ-NOUS SUR...

 
LOGIN :

S'inscrire | Disclaimer

   EN    FR    IT 

 









Légende :    VFR   VFR Marginal   IFR   IFR Intensif   IFR Très Intensif
Visi : 
Plafond : 
>= 8 km
>= 3000ft
5 à 8 km
1000 à 3000 ft
1500m à 5 km
500 à 1000 ft
800 à 1500m
200 à 500 ft
< 800m
< 200 ft
Symboles :   Orages  Brouillard  Fortes neiges  Fortes précipitations  Vent > 20 kt






- Altitude de l'aérodrome : 630 ft
- Code IATA : YAM


CYAM - Sault Ste Marie

DERNIER METAR :
  • 220000Z 24017G24KT 20SM DRSN FEW160 FEW190 FEW240 M01/M07 A2994 RMK AC1AS1CI1 AC TR CI TR SLP154

METARs EXPIRÉS :
  • 212300Z 25013G19KT 20SM DRSN FEW160 M01/M07 A2995 RMK AS1 CONTRAILS SLP156
  • 212200Z 22011G22KT 15SM DRSN FEW160 FEW200 M00/M07 A2995 RMK AS1CI1 AS TR CI TR SLP158

TAF TAF CYAM
Valide du 21 à 20h jusqu'au 22 à 08h UTC


211940Z 2120/2208 23018G30KT P6SM FEW240
BECMG 2121/2123 24012G22KT
BECMG 2200/2202 25010KT
FM220600 25008KT P6SM FEW030 RMK NXT FCST BY 220200Z



MET'MAP, la Météo Aéronautique d'un coup d'oeil ! - Copyright ORBIFLY Décembre 2007 - Disclaimer

ORBIFLY MET'MAP TEAM :

Programmation & Développement : Alexandra Zaïnal
Sur une idée originale de : Baudouin d'Aumeries
Assistance à la programmation : Marc-Olivier Méhu
Soutien technique & logistique : Manuel Goepfert

Contact : metmap@orbifly.com




SOURCES & CREDITS :

   NOAA       Earth
Advisory